Time;durP1;ratioP1;P1;durP2;ratioP2;P2;SDS_P1;SDS_P2;PMS_P1;PMS_P2;Temp;Humidity;BMP_temperature;BMP_pressure;BME280_temperature;BME280_humidity;BME280_pressure;Samples;Min_cycle;Max_cycle;Signal;HPM_P1;HPM_P2
2023/05/02 00:01:17;;;;;;;16.17;8.27;;;11.70;99.90;;;;;;5113535;28;20475;-75
2023/05/02 00:03:43;;;;;;;11.85;7.53;;;11.70;99.90;;;;;;5113777;28;20052;-75
2023/05/02 00:06:10;;;;;;;13.77;7.53;;;11.80;99.90;;;;;;5113844;28;20078;-75
2023/05/02 00:08:35;;;;;;;13.18;7.65;;;12.00;99.90;;;;;;5113838;28;20043;-74
2023/05/02 00:11:01;;;;;;;15.33;8.60;;;11.80;99.90;;;;;;5117324;28;20050;-75
2023/05/02 00:13:26;;;;;;;13.73;8.48;;;11.80;99.90;;;;;;5117729;28;20138;-75
2023/05/02 00:15:52;;;;;;;13.45;7.95;;;11.70;99.90;;;;;;5117286;28;20332;-75
2023/05/02 00:18:17;;;;;;;17.65;8.55;;;11.80;99.90;;;;;;5117238;28;20040;-75
2023/05/02 00:20:44;;;;;;;16.33;8.00;;;11.70;99.90;;;;;;5117115;28;20451;-75
2023/05/02 00:23:11;;;;;;;15.90;8.80;;;11.70;99.90;;;;;;5117098;28;20046;-75
2023/05/02 00:25:36;;;;;;;;;;;12.10;99.90;;;;;;5117488;28;20097;-75
2023/05/02 00:28:02;;;;;;;14.73;8.00;;;12.00;99.90;;;;;;5117019;28;19916;-75
2023/05/02 00:30:27;;;;;;;11.15;7.15;;;11.70;99.90;;;;;;5117020;28;20043;-75
2023/05/02 00:32:53;;;;;;;9.85;5.97;;;11.80;99.90;;;;;;5116898;28;20085;-75
2023/05/02 00:35:19;;;;;;;12.27;6.00;;;11.70;99.90;;;;;;5116778;27;20420;-74
2023/05/02 00:37:44;;;;;;;19.60;6.95;;;11.60;99.90;;;;;;5116630;28;20036;-75
2023/05/02 00:40:11;;;;;;;8.43;5.97;;;11.60;99.90;;;;;;5116483;28;20130;-75
2023/05/02 00:42:36;;;;;;;11.90;7.20;;;11.50;99.90;;;;;;5116323;28;20459;-75
2023/05/02 00:45:05;;;;;;;13.45;7.20;;;11.40;99.90;;;;;;5116989;28;20127;-76
2023/05/02 00:47:31;;;;;;;11.15;5.95;;;11.40;99.90;;;;;;5116621;28;20502;-75
2023/05/02 00:49:57;;;;;;;15.37;5.87;;;11.30;99.90;;;;;;5116466;27;20047;-75
2023/05/02 00:52:24;;;;;;;9.37;5.77;;;11.30;99.90;;;;;;5116523;28;20092;-76
2023/05/02 00:54:50;;;;;;;10.70;5.83;;;11.60;99.90;;;;;;5116464;28;20339;-75
2023/05/02 00:57:15;;;;;;;9.30;5.67;;;11.30;99.90;;;;;;5116424;28;20032;-76
2023/05/02 00:59:41;;;;;;;8.27;4.75;;;11.20;99.90;;;;;;5116554;28;20678;-75
2023/05/02 01:02:33;;;;;;;11.25;4.07;;;11.20;99.90;;;;;;5116119;28;20059;-75
2023/05/02 01:05:16;;;;;;;8.02;4.25;;;11.10;99.90;;;;;;5116233;28;20032;-75
2023/05/02 01:08:04;;;;;;;9.70;4.05;;;11.00;99.90;;;;;;5116470;28;20479;-74
2023/05/02 01:10:45;;;;;;;4.50;2.95;;;11.00;99.90;;;;;;5116448;28;20127;-75
2023/05/02 01:13:17;;;;;;;5.03;2.63;;;11.00;99.90;;;;;;5116072;28;20032;-75
2023/05/02 01:15:44;;;;;;;8.18;3.00;;;10.90;99.90;;;;;;5115940;28;20043;-74
2023/05/02 01:18:12;;;;;;;3.95;2.70;;;10.80;99.90;;;;;;5116496;28;20065;-74
2023/05/02 01:20:42;;;;;;;3.95;2.20;;;10.70;99.90;;;;;;5115705;28;20422;-75
2023/05/02 01:23:22;;;;;;;3.78;2.25;;;10.70;99.90;;;;;;5115858;27;20082;-75
2023/05/02 01:25:50;;;;;;;3.85;2.28;;;10.70;99.90;;;;;;5115113;28;20050;-75
2023/05/02 01:28:25;;;;;;;3.20;2.03;;;10.70;99.90;;;;;;5115827;28;20043;-75
2023/05/02 01:30:53;;;;;;;3.72;2.10;;;10.70;99.90;;;;;;5116095;28;20464;-75
2023/05/02 01:33:21;;;;;;;4.15;1.92;;;10.70;99.90;;;;;;5116070;28;20039;-74
2023/05/02 01:35:50;;;;;;;3.20;1.90;;;10.60;99.90;;;;;;5115551;28;20043;-75
2023/05/02 01:38:17;;;;;;;3.03;1.50;;;10.60;99.90;;;;;;5115582;28;20130;-75
2023/05/02 01:40:49;;;;;;;3.60;1.90;;;10.50;99.90;;;;;;5114581;28;20112;-75
2023/05/02 01:43:16;;;;;;;3.13;1.88;;;10.60;99.90;;;;;;5115494;28;20035;-75
2023/05/02 01:45:46;;;;;;;4.65;2.05;;;10.40;99.90;;;;;;5115517;28;20424;-75
2023/05/02 01:48:13;;;;;;;3.45;1.85;;;10.40;99.90;;;;;;5115463;28;20035;-74
2023/05/02 01:50:42;;;;;;;5.00;1.77;;;10.30;99.90;;;;;;5115415;28;20395;-75
2023/05/02 01:53:12;;;;;;;6.97;2.10;;;10.40;99.90;;;;;;5115332;28;20478;-75
2023/05/02 01:55:41;;;;;;;3.63;2.22;;;10.30;99.90;;;;;;5115292;28;20040;-74
2023/05/02 01:58:06;;;;;;;3.33;1.70;;;10.30;99.90;;;;;;5115269;28;20391;-75
2023/05/02 02:00:33;;;;;;;3.10;1.83;;;10.30;99.90;;;;;;5115448;28;20043;-74
2023/05/02 02:02:59;;;;;;;4.63;2.05;;;10.20;99.90;;;;;;5115533;28;20377;-75
2023/05/02 02:05:27;;;;;;;3.40;1.77;;;10.20;99.90;;;;;;5114926;28;20040;-75
2023/05/02 02:07:52;;;;;;;4.30;2.05;;;10.20;99.90;;;;;;5115013;28;20217;-75
2023/05/02 02:10:18;;;;;;;3.17;2.00;;;10.80;99.90;;;;;;5114957;28;20040;-75
2023/05/02 02:12:53;;;;;;;6.20;1.77;;;10.30;99.90;;;;;;5115041;28;20042;-75
2023/05/02 02:15:30;;;;;;;5.93;2.55;;;10.30;99.90;;;;;;5115178;28;20384;-75
2023/05/02 02:18:09;;;;;;;6.30;2.17;;;10.30;99.90;;;;;;5114994;28;20042;-75
2023/05/02 02:20:35;;;;;;;2.92;1.92;;;10.20;99.90;;;;;;5114895;28;20131;-75
2023/05/02 02:23:04;;;;;;;6.50;2.13;;;10.20;99.90;;;;;;5114740;28;20122;-75
2023/05/02 02:25:30;;;;;;;4.47;2.08;;;10.20;99.90;;;;;;5114797;28;20140;-75
2023/05/02 02:27:56;;;;;;;4.70;2.45;;;10.20;99.90;;;;;;5114938;28;20046;-75
2023/05/02 02:30:22;;;;;;;7.32;2.63;;;10.20;99.90;;;;;;5113344;28;20039;-75
2023/05/02 02:32:48;;;;;;;3.72;2.22;;;10.20;99.90;;;;;;5114255;28;20410;-75
2023/05/02 02:35:13;;;;;;;3.97;2.10;;;10.20;99.90;;;;;;5114610;28;20467;-75
2023/05/02 02:38:08;;;;;;;4.55;2.53;;;10.30;99.90;;;;;;5114587;28;20040;-75
2023/05/02 02:40:43;;;;;;;6.05;2.30;;;10.20;99.90;;;;;;5113596;28;20352;-75
2023/05/02 02:43:22;;;;;;;3.85;2.08;;;10.20;99.90;;;;;;5114440;28;20086;-75
2023/05/02 02:45:56;;;;;;;6.82;2.30;;;10.20;99.90;;;;;;5115042;28;20079;-75
2023/05/02 02:48:34;;;;;;;4.43;2.38;;;10.10;99.90;;;;;;5114431;28;20035;-75
2023/05/02 02:51:23;;;;;;;4.80;2.20;;;10.20;99.90;;;;;;5114657;28;20043;-75
2023/05/02 02:54:01;;;;;;;6.30;2.33;;;10.20;99.90;;;;;;5114287;28;20043;-75
2023/05/02 02:56:35;;;;;;;4.93;2.50;;;10.20;99.90;;;;;;5114152;28;20082;-74
2023/05/02 02:59:13;;;;;;;7.10;2.00;;;10.20;99.90;;;;;;5114326;28;20039;-75
2023/05/02 03:01:39;;;;;;;;;;;10.20;99.90;;;;;;5114285;28;20059;-75
2023/05/02 03:04:07;;;;;;;3.33;2.20;;;10.20;99.90;;;;;;5114234;28;20394;-75
2023/05/02 03:06:33;;;;;;;7.25;2.33;;;10.20;99.90;;;;;;5114100;28;20387;-75
2023/05/02 03:08:59;;;;;;;7.70;2.10;;;10.10;99.90;;;;;;5114417;28;20040;-74
2023/05/02 03:11:25;;;;;;;8.65;1.98;;;10.00;99.90;;;;;;5113014;28;20036;-75
2023/05/02 03:13:51;;;;;;;4.68;1.80;;;9.70;99.90;;;;;;5114206;28;20119;-75
2023/05/02 03:16:36;;;;;;;7.88;2.10;;;9.50;99.90;;;;;;5114113;28;20131;-74
2023/05/02 03:19:02;;;;;;;8.68;2.05;;;9.30;99.90;;;;;;5114574;28;20040;-74
2023/05/02 03:21:30;;;;;;;7.32;2.00;;;9.20;99.90;;;;;;5114037;28;20039;-74
2023/05/02 03:23:57;;;;;;;8.25;2.45;;;9.10;99.90;;;;;;5114409;28;20047;-75
2023/05/02 03:26:23;;;;;;;10.77;2.72;;;9.00;99.90;;;;;;5114051;28;20420;-74
2023/05/02 03:28:50;;;;;;;17.58;3.38;;;8.80;99.90;;;;;;5114029;28;20039;-74
2023/05/02 03:31:16;;;;;;;6.68;2.65;;;8.70;99.90;;;;;;5113950;28;20047;-74
2023/05/02 03:33:41;;;;;;;8.98;2.58;;;8.70;99.90;;;;;;5113938;28;20070;-74
2023/05/02 03:36:07;;;;;;;11.25;2.90;;;8.60;99.90;;;;;;5114009;28;20040;-74
2023/05/02 03:38:33;;;;;;;12.05;3.00;;;8.60;99.90;;;;;;5113894;28;20036;-74
2023/05/02 03:40:59;;;;;;;12.80;2.88;;;8.50;99.90;;;;;;5114241;28;20466;-75
2023/05/02 03:43:24;;;;;;;9.38;2.80;;;8.40;99.90;;;;;;5113848;28;20040;-74
2023/05/02 03:45:50;;;;;;;10.60;2.70;;;8.80;99.90;;;;;;5117566;28;20067;-74
2023/05/02 03:48:16;;;;;;;13.48;3.30;;;8.30;99.90;;;;;;5117708;28;20082;-75
2023/05/02 03:50:42;;;;;;;9.55;3.40;;;8.30;99.90;;;;;;5117746;28;20526;-74
2023/05/02 03:53:08;;;;;;;12.95;2.92;;;8.20;99.90;;;;;;5117692;28;20043;-75
2023/05/02 03:55:39;;;;;;;16.25;3.78;;;8.20;99.90;;;;;;5116576;28;20070;-74
2023/05/02 03:58:05;;;;;;;15.80;3.97;;;8.20;99.90;;;;;;5117739;28;20043;-74
2023/05/02 04:00:31;;;;;;;17.07;2.83;;;8.20;99.90;;;;;;5117578;28;20540;-74
2023/05/02 04:02:57;;;;;;;12.52;2.95;;;8.10;99.90;;;;;;5117888;28;20055;-74
2023/05/02 04:05:22;;;;;;;14.85;3.22;;;8.00;99.90;;;;;;5116336;28;20043;-75
2023/05/02 04:07:48;;;;;;;24.65;4.28;;;8.00;99.90;;;;;;5117426;28;20039;-75
2023/05/02 04:10:16;;;;;;;9.73;3.15;;;8.50;99.90;;;;;;5117590;28;20047;-74
2023/05/02 04:12:42;;;;;;;14.52;2.80;;;8.00;99.90;;;;;;5117329;28;20035;-76
2023/05/02 04:15:09;;;;;;;13.43;3.08;;;8.00;99.90;;;;;;5116803;28;20111;-74
2023/05/02 04:17:35;;;;;;;13.18;3.72;;;7.90;99.90;;;;;;5116867;28;20044;-76
2023/05/02 04:20:00;;;;;;;8.70;2.80;;;7.90;99.90;;;;;;5115896;28;20035;-76
2023/05/02 04:22:26;;;;;;;5.93;2.22;;;8.00;99.90;;;;;;5117115;28;20031;-77
2023/05/02 04:24:52;;;;;;;14.48;4.05;;;8.00;99.90;;;;;;5116817;28;20044;-73
2023/05/02 04:27:18;;;;;;;21.65;3.67;;;7.90;99.90;;;;;;5117163;28;20123;-74
2023/05/02 04:29:50;;;;;;;13.25;3.65;;;7.90;99.90;;;;;;5116996;28;20113;-73
2023/05/02 04:32:15;;;;;;;15.65;3.45;;;7.90;99.90;;;;;;5117338;27;20400;-74
2023/05/02 04:34:41;;;;;;;12.10;2.90;;;7.80;99.90;;;;;;5116863;28;20105;-74
2023/05/02 04:37:07;;;;;;;12.00;3.60;;;7.80;99.90;;;;;;5116858;28;20035;-75
2023/05/02 04:39:33;;;;;;;10.25;2.25;;;7.70;99.90;;;;;;5116852;28;20043;-74
2023/05/02 04:41:58;;;;;;;8.73;2.25;;;7.60;99.90;;;;;;5116662;28;20035;-74
2023/05/02 04:44:24;;;;;;;12.80;2.70;;;7.60;99.90;;;;;;5116726;28;20038;-73
2023/05/02 04:46:50;;;;;;;9.45;3.33;;;7.60;99.90;;;;;;5116257;28;20040;-74
2023/05/02 04:49:16;;;;;;;6.00;2.28;;;7.60;99.90;;;;;;5116680;28;20036;-73
2023/05/02 04:51:41;;;;;;;9.05;1.92;;;7.60;99.90;;;;;;5116859;28;20061;-74
2023/05/02 04:54:07;;;;;;;12.45;2.67;;;7.60;99.90;;;;;;5116591;28;20043;-73
2023/05/02 04:56:33;;;;;;;6.80;2.60;;;7.50;99.90;;;;;;5116141;28;20035;-73
2023/05/02 04:58:58;;;;;;;7.05;2.33;;;7.50;99.90;;;;;;5116519;28;20043;-73
2023/05/02 05:01:26;;;;;;;13.63;2.53;;;7.50;99.90;;;;;;5116145;28;20459;-73
2023/05/02 05:03:53;;;;;;;10.75;2.33;;;7.50;99.90;;;;;;5116343;27;20042;-73
2023/05/02 05:06:18;;;;;;;9.63;3.08;;;7.50;99.90;;;;;;5116463;28;20036;-73
2023/05/02 05:08:45;;;;;;;11.52;2.65;;;7.50;99.90;;;;;;5116151;28;20126;-73
2023/05/02 05:11:11;;;;;;;9.38;2.50;;;7.80;99.90;;;;;;5116297;28;20048;-73
2023/05/02 05:13:37;;;;;;;9.07;2.10;;;7.50;99.90;;;;;;5115126;28;20463;-73
2023/05/02 05:16:03;;;;;;;5.35;1.92;;;7.50;99.90;;;;;;5116044;28;20045;-73
2023/05/02 05:18:29;;;;;;;11.97;1.80;;;7.50;99.90;;;;;;5116337;28;20087;-74
2023/05/02 05:20:55;;;;;;;5.28;1.88;;;7.60;99.90;;;;;;5116071;28;20390;-73
2023/05/02 05:23:20;;;;;;;8.02;2.05;;;7.60;99.90;;;;;;5115743;28;20085;-73
2023/05/02 05:25:46;;;;;;;5.93;2.40;;;7.60;99.90;;;;;;5115947;28;20050;-74
2023/05/02 05:28:12;;;;;;;6.20;2.38;;;7.90;99.90;;;;;;5115985;28;20043;-73
2023/05/02 05:30:37;;;;;;;5.90;1.92;;;7.60;99.90;;;;;;5115801;28;20352;-73
2023/05/02 05:33:03;;;;;;;8.98;1.90;;;7.60;99.90;;;;;;5116221;28;20075;-74
2023/05/02 05:35:30;;;;;;;8.50;2.13;;;7.70;99.90;;;;;;5115664;28;20036;-73
2023/05/02 05:37:56;;;;;;;3.05;1.50;;;7.70;99.90;;;;;;5115638;27;20044;-73
2023/05/02 05:40:22;;;;;;;9.63;1.90;;;7.80;99.90;;;;;;5115665;28;20374;-73
2023/05/02 05:42:48;;;;;;;4.70;1.80;;;7.80;99.90;;;;;;5115565;28;20031;-74
2023/05/02 05:45:15;;;;;;;10.13;3.03;;;7.80;99.90;;;;;;5115490;28;20040;-73
2023/05/02 05:47:40;;;;;;;9.55;1.90;;;7.80;99.90;;;;;;5115372;28;20050;-73
2023/05/02 05:50:06;;;;;;;11.00;2.10;;;7.80;99.90;;;;;;5115400;28;20036;-74
2023/05/02 05:52:32;;;;;;;5.50;1.80;;;7.80;99.90;;;;;;5115391;28;20035;-73
2023/05/02 05:54:58;;;;;;;4.45;1.60;;;7.80;99.90;;;;;;5115385;28;20164;-73
2023/05/02 05:57:24;;;;;;;3.70;1.60;;;7.80;99.90;;;;;;5115080;28;20039;-74
2023/05/02 05:59:50;;;;;;;6.50;1.90;;;7.80;99.90;;;;;;5115231;27;20383;-77
2023/05/02 06:02:16;;;;;;;10.40;1.92;;;7.90;99.90;;;;;;5115137;28;20051;-77
2023/05/02 06:04:42;;;;;;;5.78;1.73;;;7.80;99.90;;;;;;5115271;28;20048;-74
2023/05/02 06:07:08;;;;;;;5.03;1.52;;;7.90;99.90;;;;;;5114704;28;20490;-77
2023/05/02 06:09:33;;;;;;;2.38;1.40;;;8.00;99.90;;;;;;5115110;28;20039;-75
2023/05/02 06:12:01;;;;;;;5.65;1.73;;;8.20;99.90;;;;;;5114984;28;20418;-79
2023/05/02 06:14:29;;;;;;;5.53;1.67;;;8.20;99.90;;;;;;5114671;28;20079;-74
2023/05/02 06:16:58;;;;;;;7.63;2.30;;;8.20;99.90;;;;;;5113844;28;20039;-75
2023/05/02 06:19:23;;;;;;;12.95;1.80;;;8.40;99.90;;;;;;5114764;28;20192;-75
2023/05/02 06:21:49;;;;;;;4.05;1.50;;;8.50;99.90;;;;;;5112903;28;20122;-74
2023/05/02 06:24:15;;;;;;;6.70;1.63;;;8.70;99.90;;;;;;5114704;28;20048;-74
2023/05/02 06:26:40;;;;;;;5.32;1.70;;;8.60;99.90;;;;;;5114796;28;20468;-74
2023/05/02 06:29:06;;;;;;;9.15;2.17;;;8.90;99.90;;;;;;5114641;28;20047;-74
2023/05/02 06:31:31;;;;;;;5.53;2.03;;;8.80;99.90;;;;;;5114728;28;20044;-74
2023/05/02 06:33:57;;;;;;;5.47;1.77;;;8.80;99.90;;;;;;5114599;28;20035;-75
2023/05/02 06:36:22;;;;;;;3.50;1.55;;;8.90;99.90;;;;;;5114604;28;20375;-74
2023/05/02 06:38:48;;;;;;;3.92;1.65;;;8.80;99.90;;;;;;5114571;28;20051;-74
2023/05/02 06:41:14;;;;;;;6.25;1.85;;;9.30;99.90;;;;;;5114552;28;20042;-73
2023/05/02 06:43:40;;;;;;;5.07;1.80;;;8.70;99.90;;;;;;5114353;28;20054;-74
2023/05/02 06:46:06;;;;;;;6.43;2.45;;;8.80;99.90;;;;;;5114403;28;20134;-73
2023/05/02 06:48:34;;;;;;;3.25;2.00;;;8.80;99.90;;;;;;5114417;28;20039;-74
2023/05/02 06:51:00;;;;;;;6.43;1.92;;;8.70;99.90;;;;;;5114359;28;20059;-74
2023/05/02 06:53:25;;;;;;;6.75;1.98;;;8.80;99.90;;;;;;5114344;28;20043;-74
2023/05/02 06:55:52;;;;;;;5.50;2.38;;;8.70;99.90;;;;;;5114454;28;20058;-74
2023/05/02 06:58:17;;;;;;;8.23;1.90;;;8.50;99.90;;;;;;5114287;28;20379;-75
2023/05/02 07:00:43;;;;;;;6.68;2.30;;;9.00;99.90;;;;;;5114410;28;20126;-75
2023/05/02 07:03:10;;;;;;;13.25;2.78;;;8.60;99.90;;;;;;5112617;28;20048;-74
2023/05/02 07:05:35;;;;;;;9.82;2.13;;;8.50;99.90;;;;;;5113888;28;20039;-74
2023/05/02 07:08:01;;;;;;;6.22;2.20;;;8.50;99.90;;;;;;5114123;28;20043;-75
2023/05/02 07:10:27;;;;;;;4.93;1.95;;;8.50;99.90;;;;;;5113029;28;20039;-74
2023/05/02 07:12:52;;;;;;;8.18;2.08;;;8.60;99.90;;;;;;5114113;28;20039;-73
2023/05/02 07:15:18;;;;;;;10.55;2.00;;;8.70;99.90;;;;;;5113837;28;20042;-74
2023/05/02 07:17:46;;;;;;;3.17;1.77;;;8.70;99.90;;;;;;5113663;28;20036;-74
2023/05/02 07:20:12;;;;;;;6.95;1.98;;;8.60;99.90;;;;;;5117218;28;20366;-74
2023/05/02 07:22:37;;;;;;;9.23;1.95;;;8.60;99.90;;;;;;5118239;28;20118;-75
2023/05/02 07:25:03;;;;;;;7.53;2.35;;;8.60;99.90;;;;;;5118327;28;20058;-74
2023/05/02 07:27:29;;;;;;;8.40;2.58;;;8.60;99.90;;;;;;5117935;28;20035;-74
2023/05/02 07:29:55;;;;;;;6.18;1.75;;;9.10;99.90;;;;;;5117911;28;20118;-74
2023/05/02 07:32:21;;;;;;;3.45;1.80;;;8.70;99.90;;;;;;5118118;28;20039;-74
2023/05/02 07:34:47;;;;;;;6.35;1.88;;;8.80;99.90;;;;;;5118057;28;20035;-73
2023/05/02 07:37:13;;;;;;;6.05;1.98;;;8.70;99.90;;;;;;5118044;28;20172;-73
2023/05/02 07:39:38;;;;;;;10.05;2.08;;;8.80;99.90;;;;;;5117983;28;20453;-73
2023/05/02 07:42:05;;;;;;;6.97;2.05;;;9.10;99.90;;;;;;5117966;28;20039;-73
2023/05/02 07:44:32;;;;;;;7.75;2.33;;;9.50;99.90;;;;;;5117519;28;20040;-74
2023/05/02 07:46:58;;;;;;;7.20;1.80;;;9.10;99.90;;;;;;5117679;28;20051;-80
2023/05/02 07:49:23;;;;;;;6.57;2.10;;;9.10;99.90;;;;;;5117398;27;20035;-72
2023/05/02 07:51:49;;;;;;;7.10;2.25;;;9.10;99.90;;;;;;5117656;28;20075;-75
2023/05/02 07:54:19;;;;;;;5.68;1.77;;;9.10;99.90;;;;;;5117784;28;20032;-77
2023/05/02 07:56:45;;;;;;;5.85;2.10;;;9.10;99.90;;;;;;5117953;28;20428;-73
2023/05/02 07:59:10;;;;;;;6.50;1.90;;;9.20;99.90;;;;;;5117578;28;20115;-74
2023/05/02 08:01:37;;;;;;;6.05;1.92;;;9.10;99.90;;;;;;5117218;28;20143;-74
2023/05/02 08:04:03;;;;;;;5.85;1.73;;;9.20;99.90;;;;;;5117534;27;20089;-72
2023/05/02 08:06:29;;;;;;;8.50;1.92;;;9.10;99.90;;;;;;5117445;28;20043;-73
2023/05/02 08:08:55;;;;;;;4.20;2.05;;;9.20;99.90;;;;;;5117629;27;20039;-73
2023/05/02 08:11:24;;;;;;;9.50;2.20;;;9.30;99.90;;;;;;5117171;28;20530;-74
2023/05/02 08:13:53;;;;;;;9.70;2.10;;;9.20;99.90;;;;;;5117290;28;20094;-74
2023/05/02 08:16:19;;;;;;;7.45;2.00;;;9.30;99.90;;;;;;5117316;28;20032;-74
2023/05/02 08:18:45;;;;;;;6.50;1.98;;;9.20;99.90;;;;;;5117289;28;20040;-74
2023/05/02 08:21:11;;;;;;;3.53;1.58;;;9.40;99.90;;;;;;5117251;28;20131;-75
2023/05/02 08:23:36;;;;;;;5.15;1.80;;;9.60;99.90;;;;;;5117049;28;20047;-74
2023/05/02 08:26:02;;;;;;;5.03;1.77;;;9.70;99.90;;;;;;5117115;28;20040;-75
2023/05/02 08:28:29;;;;;;;6.32;1.80;;;9.70;99.90;;;;;;5117276;28;20066;-73
2023/05/02 08:30:55;;;;;;;5.15;1.83;;;9.90;99.90;;;;;;5116310;28;20044;-75
2023/05/02 08:33:20;;;;;;;3.58;1.75;;;10.00;99.90;;;;;;5117384;28;20042;-74
2023/05/02 08:35:47;;;;;;;5.40;2.00;;;10.00;99.90;;;;;;5117023;28;20126;-76
2023/05/02 08:38:12;;;;;;;9.73;1.77;;;10.00;99.90;;;;;;5116868;28;20107;-74
2023/05/02 08:40:38;;;;;;;2.92;1.80;;;10.10;99.90;;;;;;5115671;28;20047;-76
2023/05/02 08:43:04;;;;;;;7.45;1.95;;;10.00;99.90;;;;;;5116652;28;20043;-76
2023/05/02 08:45:37;;;;;;;4.35;1.77;;;10.00;99.90;;;;;;5099416;28;20035;-79
2023/05/02 08:48:11;;;;;;;8.68;2.10;;;10.10;99.90;;;;;;5115662;28;20123;-75
2023/05/02 08:50:38;;;;;;;5.07;1.88;;;10.10;99.90;;;;;;5116678;28;20076;-75
2023/05/02 08:53:06;;;;;;;4.82;2.92;;;10.10;99.90;;;;;;5116729;28;20042;-75
2023/05/02 08:55:33;;;;;;;4.70;1.77;;;10.30;99.90;;;;;;5116461;28;20043;-74
2023/05/02 08:57:59;;;;;;;;;;;10.50;99.90;;;;;;5116967;27;20027;-73
2023/05/02 09:00:25;;;;;;;4.43;1.77;;;10.90;99.90;;;;;;5116372;27;19922;-74
2023/05/02 09:03:25;;;;;;;6.32;1.70;;;10.80;99.90;;;;;;5115981;27;20051;-74
2023/05/02 09:06:11;;;;;;;4.05;1.60;;;10.90;99.90;;;;;;5112152;28;20040;-73
2023/05/02 09:08:37;;;;;;;4.10;1.83;;;11.00;99.90;;;;;;5116573;28;20374;-74
2023/05/02 09:11:04;;;;;;;4.93;1.57;;;11.00;99.90;;;;;;5116236;28;20054;-73
2023/05/02 09:13:44;;;;;;;10.50;2.05;;;11.00;99.90;;;;;;5116204;28;20062;-74
2023/05/02 09:16:22;;;;;;;4.45;1.73;;;11.00;99.90;;;;;;5116287;28;20039;-74
2023/05/02 09:18:50;;;;;;;4.32;1.80;;;11.00;99.90;;;;;;5116196;28;20524;-73
2023/05/02 09:21:36;;;;;;;4.70;1.88;;;11.10;99.90;;;;;;5116024;28;20093;-74
2023/05/02 09:24:15;;;;;;;5.40;1.80;;;11.10;99.90;;;;;;5115990;28;20039;-74
2023/05/02 09:26:41;;;;;;;5.32;1.80;;;11.00;99.90;;;;;;5115977;28;20364;-75
2023/05/02 09:29:06;;;;;;;7.15;1.92;;;10.90;99.90;;;;;;5115749;28;20096;-75
2023/05/02 09:31:36;;;;;;;6.85;1.60;;;11.00;99.90;;;;;;5115840;28;20039;-76
2023/05/02 09:34:17;;;;;;;7.47;2.22;;;11.00;99.90;;;;;;5115812;28;20035;-75
2023/05/02 09:36:52;;;;;;;6.05;1.67;;;11.00;99.90;;;;;;5115779;28;20039;-74
2023/05/02 09:39:24;;;;;;;3.80;1.70;;;11.10;99.90;;;;;;5115791;28;20047;-74
2023/05/02 09:41:50;;;;;;;4.50;1.80;;;10.90;99.90;;;;;;5114541;28;20340;-75
2023/05/02 09:44:17;;;;;;;8.77;1.92;;;10.90;99.90;;;;;;5115648;28;20035;-74
2023/05/02 09:46:45;;;;;;;5.70;2.15;;;10.80;99.90;;;;;;5115588;28;20040;-75
2023/05/02 09:49:13;;;;;;;4.50;1.65;;;10.70;99.90;;;;;;5115201;28;20487;-76
2023/05/02 09:51:39;;;;;;;5.50;1.65;;;10.90;99.90;;;;;;5115611;28;20049;-75
2023/05/02 09:54:05;;;;;;;3.88;1.38;;;11.00;99.90;;;;;;5115467;28;20079;-75
2023/05/02 09:56:30;;;;;;;4.78;1.70;;;10.90;99.90;;;;;;5115490;28;20075;-76
2023/05/02 09:59:15;;;;;;;4.20;1.83;;;10.90;99.90;;;;;;5115314;28;20536;-76
2023/05/02 10:01:41;;;;;;;5.22;1.73;;;11.00;99.90;;;;;;5114892;28;20031;-74
2023/05/02 10:04:17;;;;;;;8.95;2.00;;;11.00;99.90;;;;;;5115428;28;20118;-74
2023/05/02 10:06:43;;;;;;;5.55;1.60;;;11.00;99.90;;;;;;5114991;28;20050;-74
2023/05/02 10:09:11;;;;;;;5.43;2.03;;;11.00;99.90;;;;;;5115070;28;20074;-74
2023/05/02 10:11:42;;;;;;;6.97;1.60;;;11.00;99.90;;;;;;5113131;28;20046;-78
2023/05/02 10:14:09;;;;;;;3.95;1.67;;;11.30;99.90;;;;;;5114476;28;20044;-75
2023/05/02 10:16:36;;;;;;;;;;;11.10;99.90;;;;;;5114928;28;20043;-75
2023/05/02 10:19:11;;;;;;;4.80;1.60;;;11.10;99.90;;;;;;5118419;28;19915;-73
2023/05/02 10:21:41;;;;;;;3.88;1.13;;;11.10;99.90;;;;;;5115915;28;20043;-76
2023/05/02 10:24:08;;;;;;;4.47;1.45;;;11.00;99.90;;;;;;5114634;28;20043;-76
2023/05/02 10:26:35;;;;;;;3.35;1.35;;;10.80;99.90;;;;;;5114683;28;20421;-76
2023/05/02 10:29:01;;;;;;;5.55;1.60;;;10.80;99.90;;;;;;5114789;28;20344;-76
2023/05/02 10:31:32;;;;;;;3.08;1.20;;;10.90;99.90;;;;;;5114640;28;20439;-75
2023/05/02 10:34:00;;;;;;;2.88;1.25;;;11.00;99.90;;;;;;5114282;28;20036;-76
2023/05/02 10:36:27;;;;;;;4.18;1.10;;;11.00;99.90;;;;;;5113680;28;20114;-75
2023/05/02 10:38:54;;;;;;;4.65;1.17;;;10.90;99.90;;;;;;5113212;28;20039;-74
2023/05/02 10:41:25;;;;;;;3.70;1.10;;;10.90;99.90;;;;;;5114185;28;20380;-75
2023/05/02 10:43:52;;;;;;;2.28;1.13;;;11.20;99.90;;;;;;5114301;28;20039;-74
2023/05/02 10:46:39;;;;;;;4.35;1.40;;;11.40;99.90;;;;;;5114255;28;20086;-75
2023/05/02 10:49:12;;;;;;;5.00;1.27;;;11.70;99.90;;;;;;5114261;28;20039;-74
2023/05/02 10:51:42;;;;;;;2.60;1.27;;;11.80;99.90;;;;;;5114101;28;20118;-74
2023/05/02 10:54:19;;;;;;;2.65;1.15;;;12.00;99.90;;;;;;5113850;28;20440;-75
2023/05/02 10:57:03;;;;;;;6.28;1.20;;;12.10;99.90;;;;;;5113740;28;20122;-74
2023/05/02 10:59:48;;;;;;;4.80;1.10;;;12.40;99.60;;;;;;5114429;28;20055;-74
2023/05/02 11:02:22;;;;;;;4.35;1.10;;;12.50;99.90;;;;;;5113625;28;20047;-75
2023/05/02 11:05:07;;;;;;;3.25;1.30;;;12.60;99.90;;;;;;5114242;28;20122;-74
2023/05/02 11:07:34;;;;;;;5.35;1.23;;;12.90;99.90;;;;;;5113492;28;20040;-75
2023/05/02 11:10:15;;;;;;;2.70;1.13;;;12.90;99.90;;;;;;5114099;28;20069;-74
2023/05/02 11:12:48;;;;;;;2.03;1.00;;;13.00;98.70;;;;;;5114146;28;20051;-74
2023/05/02 11:15:39;;;;;;;1.23;0.90;;;13.00;99.60;;;;;;5113641;28;20039;-75
2023/05/02 11:18:13;;;;;;;4.70;1.20;;;12.90;99.90;;;;;;5105406;28;20128;-74
2023/05/02 11:20:40;;;;;;;4.20;1.15;;;13.00;99.90;;;;;;5113931;28;20039;-75
2023/05/02 11:23:15;;;;;;;1.67;1.08;;;13.00;99.90;;;;;;5113285;28;20487;-75
2023/05/02 11:25:43;;;;;;;2.78;1.15;;;12.70;99.70;;;;;;5113210;28;20081;-76
2023/05/02 11:28:36;;;;;;;3.13;0.93;;;12.70;99.90;;;;;;5113290;28;20055;-76
2023/05/02 11:31:29;;;;;;;6.07;1.35;;;12.60;99.90;;;;;;5112421;28;20143;-78
2023/05/02 11:33:59;;;;;;;3.15;1.30;;;12.60;99.90;;;;;;5113426;28;20042;-77
2023/05/02 11:36:34;;;;;;;17.27;3.80;;;12.50;99.90;;;;;;5113541;28;20083;-77
2023/05/02 11:39:06;;;;;;;4.15;1.35;;;12.60;99.90;;;;;;5113816;28;20043;-78
2023/05/02 11:41:39;;;;;;;3.10;1.10;;;12.80;99.90;;;;;;5111945;28;20523;-74
2023/05/02 11:44:05;;;;;;;3.38;1.40;;;13.00;99.90;;;;;;5113722;28;20142;-76
2023/05/02 11:46:31;;;;;;;7.15;1.65;;;13.10;99.80;;;;;;5113511;28;20118;-78
2023/05/02 11:48:56;;;;;;;2.78;1.13;;;12.90;99.90;;;;;;5113397;28;20111;-74
2023/05/02 11:51:22;;;;;;;3.43;1.20;;;12.90;99.90;;;;;;5113581;28;20039;-77
2023/05/02 11:53:48;;;;;;;2.20;1.10;;;13.00;99.90;;;;;;5113363;28;20375;-75
2023/05/02 11:56:14;;;;;;;4.72;0.98;;;13.00;98.70;;;;;;5113453;28;20032;-76
2023/05/02 11:58:40;;;;;;;3.65;1.05;;;12.70;99.40;;;;;;5113705;28;20132;-75
2023/05/02 12:01:13;;;;;;;3.80;0.90;;;12.90;99.90;;;;;;5113462;28;20105;-75
2023/05/02 12:03:38;;;;;;;1.98;1.13;;;12.90;99.90;;;;;;5112785;28;20054;-76
2023/05/02 12:06:15;;;;;;;3.25;0.82;;;12.70;98.20;;;;;;5115946;28;20523;-75
2023/05/02 12:08:43;;;;;;;5.97;1.13;;;12.70;99.90;;;;;;5117193;28;20039;-77
2023/05/02 12:11:11;;;;;;;3.30;1.00;;;12.50;99.90;;;;;;5117016;28;20092;-74
2023/05/02 12:13:47;;;;;;;3.58;1.00;;;12.40;99.90;;;;;;5116654;28;20495;-75
2023/05/02 12:16:13;;;;;;;3.42;1.10;;;12.30;99.90;;;;;;5115690;28;20039;-76
2023/05/02 12:18:39;;;;;;;2.67;0.80;;;12.30;99.90;;;;;;5099011;28;20047;-76
2023/05/02 12:21:06;;;;;;;1.70;0.90;;;12.30;99.90;;;;;;5116728;28;20048;-79
2023/05/02 12:23:32;;;;;;;1.92;0.90;;;12.20;99.90;;;;;;5116803;28;20300;-76
2023/05/02 12:25:58;;;;;;;1.70;0.90;;;12.20;99.90;;;;;;5116945;28;20031;-76
2023/05/02 12:28:23;;;;;;;1.50;0.80;;;12.20;99.90;;;;;;5116779;28;20038;-77
2023/05/02 12:30:50;;;;;;;2.63;1.00;;;12.20;99.50;;;;;;5116680;28;20047;-77
2023/05/02 12:33:16;;;;;;;;;;;12.20;99.90;;;;;;5117061;28;20384;-77
2023/05/02 12:35:44;;;;;;;1.65;0.90;;;12.10;99.70;;;;;;5116510;28;19915;-76
2023/05/02 12:38:13;;;;;;;1.77;1.02;;;12.10;99.90;;;;;;5116435;28;20089;-75
2023/05/02 12:40:45;;;;;;;2.58;0.70;;;11.90;99.90;;;;;;5115045;28;20458;-77
2023/05/02 12:43:10;;;;;;;3.13;1.40;;;12.00;99.90;;;;;;5116592;28;20040;-75
2023/05/02 12:45:39;;;;;;;3.78;1.00;;;12.10;99.90;;;;;;5116458;28;20431;-76
2023/05/02 12:48:25;;;;;;;1.88;1.00;;;12.10;99.90;;;;;;5116465;28;20174;-78
2023/05/02 12:50:52;;;;;;;4.10;1.20;;;12.30;99.90;;;;;;5116238;28;20364;-77
2023/05/02 12:53:36;;;;;;;2.90;1.10;;;12.30;99.90;;;;;;5116111;28;20066;-76
2023/05/02 12:56:02;;;;;;;2.88;1.08;;;12.40;99.90;;;;;;5116270;28;20048;-76
2023/05/02 12:58:28;;;;;;;3.60;0.93;;;12.60;99.90;;;;;;5115766;28;20135;-76